»·PEaware :: N575CB KBUR-KLAS

N575CB :: KBUR-KLAS

FLIGHT INFORMATION

Flight Status: Arrived
Operator: Privately registered:
United States
More flights under this callsign
Pilot: Sjoerd Jan T. (24821)
Aircraft: CESSNA 172 SKYHAWK
(C172)
More flights by this aircraft type
Origin: KBUR Bob Hope-Burbank
United States
Destination: KLAS McCarran Intl
United States
More flights between these airports :: More routes between these airports
Route: VNY3 DAG CRESO4
File this flight plan on PilotEdge
Remarks:
Altitude:
(Current/Filed)
11,000ft
Speed:
(Current/Filed)
110kts
Departed: 12-Jan-21 12:50 PM
Arrived: 12-Jan-21 03:08 PM
Distance/Time
Traveled:
194nm/2:17
Distance/Time
To Go:
Arrived

Flight Plot

Page will automatically refresh every two minutes.

Flight plan parsing failed; only flown route is shown


Map Options




Map Legend


Flown Route
Filed Route
Departure Airport
Arrival Airport
Navaid (VOR, NDB)
Fix

Horizontal Profiles

Position Reports

Time Latitude Longitude Heading Altitude Ground
Speed
12-Jan-21 12:22 34.200352 -118.363575 230 727ft 0kts
12-Jan-21 12:23 34.200352 -118.363575 230 727ft 0kts
12-Jan-21 12:24 34.200352 -118.363575 230 727ft 0kts
12-Jan-21 12:25 34.200352 -118.363575 230 727ft 0kts
12-Jan-21 12:26 34.200352 -118.363575 230 727ft 0kts
12-Jan-21 12:27 34.200352 -118.363575 230 727ft 0kts
12-Jan-21 12:28 34.200352 -118.363575 230 727ft 0kts
12-Jan-21 12:29 34.200352 -118.363575 230 727ft 0kts
12-Jan-21 12:30 34.200352 -118.363575 230 727ft 0kts
12-Jan-21 12:31 34.200352 -118.363575 230 727ft 0kts
12-Jan-21 12:32 34.200352 -118.363575 230 727ft 0kts
12-Jan-21 12:33 34.200352 -118.363575 230 727ft 0kts
12-Jan-21 12:34 34.200352 -118.363575 230 727ft 0kts
12-Jan-21 12:35 34.200352 -118.363575 230 727ft 0kts
12-Jan-21 12:36 34.200352 -118.363575 230 727ft 0kts
12-Jan-21 12:37 34.200352 -118.363575 230 727ft 0kts
12-Jan-21 12:38 34.200352 -118.363575 230 727ft 0kts
12-Jan-21 12:39 34.200352 -118.363575 230 727ft 0kts
12-Jan-21 12:40 34.200352 -118.363575 230 727ft 0kts
12-Jan-21 12:41 34.200352 -118.363575 230 727ft 0kts
12-Jan-21 12:42 34.200352 -118.363575 230 727ft 0kts
12-Jan-21 12:43 34.200147 -118.363873 246 726ft 5kts
12-Jan-21 12:44 34.199090 -118.365710 268 725ft 8kts
12-Jan-21 12:45 34.199002 -118.368840 226 727ft 7kts
12-Jan-21 12:46 34.198741 -118.368991 189 727ft 0kts
12-Jan-21 12:47 34.198741 -118.368991 189 727ft 0kts
12-Jan-21 12:48 34.198741 -118.368991 189 727ft 0kts
12-Jan-21 12:49 34.197834 -118.362345 90 722ft 79kts
12-Jan-21 12:50 34.193352 -118.336376 148 1386ft 84kts
12-Jan-21 12:51 34.173972 -118.351123 223 1996ft 88kts
12-Jan-21 12:52 34.156244 -118.372932 223 2531ft 96kts
12-Jan-21 12:53 34.137253 -118.396192 223 3059ft 96kts
12-Jan-21 12:54 34.119175 -118.418422 223 3640ft 90kts
12-Jan-21 12:55 34.116537 -118.442070 335 4161ft 89kts
12-Jan-21 12:56 34.140174 -118.444284 354 4704ft 83kts
12-Jan-21 12:57 34.165939 -118.445876 356 4895ft 104kts
12-Jan-21 12:58 34.193437 -118.447530 355 5155ft 88kts
12-Jan-21 12:59 34.216540 -118.449283 353 5540ft 84kts
12-Jan-21 13:00 34.241055 -118.451135 354 5881ft 94kts
12-Jan-21 13:01 34.269047 -118.453108 355 6112ft 106kts
12-Jan-21 13:02 34.297403 -118.455106 354 6486ft 98kts
12-Jan-21 13:03 34.324374 -118.457077 354 6832ft 98kts
12-Jan-21 13:04 34.351968 -118.459082 354 7127ft 101kts
12-Jan-21 13:05 34.380421 -118.458053 34 7396ft 107kts
12-Jan-21 13:06 34.400038 -118.432506 48 7673ft 99kts
12-Jan-21 13:07 34.417270 -118.406604 49 7961ft 98kts
12-Jan-21 13:08 34.433825 -118.380744 50 8250ft 96kts
12-Jan-21 13:09 34.449804 -118.355458 50 8537ft 93kts
12-Jan-21 13:10 34.465986 -118.329748 50 8691ft 104kts
12-Jan-21 13:11 34.484632 -118.299864 51 8689ft 116kts
12-Jan-21 13:12 34.504395 -118.268136 51 8688ft 119kts
12-Jan-21 13:13 34.524477 -118.236051 51 8688ft 119kts
12-Jan-21 13:14 34.545003 -118.203202 51 8623ft 121kts
12-Jan-21 13:15 34.565133 -118.170987 51 8623ft 119kts
12-Jan-21 13:16 34.585091 -118.139031 51 8624ft 118kts
12-Jan-21 13:17 34.604838 -118.107368 51 8624ft 117kts
12-Jan-21 13:18 34.624462 -118.075884 51 8624ft 117kts
12-Jan-21 13:19 34.633966 -118.038681 79 8623ft 117kts
12-Jan-21 13:20 34.638780 -117.999430 80 8624ft 117kts
12-Jan-21 13:21 34.642893 -117.962314 80 8620ft 99kts
12-Jan-21 13:22 34.646685 -117.928617 80 8624ft 102kts
12-Jan-21 13:23 34.650514 -117.893841 80 8624ft 104kts
12-Jan-21 13:24 34.654406 -117.858221 82 8624ft 108kts
12-Jan-21 13:25 34.658343 -117.821733 81 8624ft 109kts
12-Jan-21 13:26 34.662298 -117.784925 81 8624ft 110kts
12-Jan-21 13:27 34.668707 -117.748660 71 8624ft 110kts
12-Jan-21 13:28 34.677666 -117.713057 71 8624ft 110kts
12-Jan-21 13:29 34.686779 -117.677352 71 8624ft 110kts
12-Jan-21 13:30 34.695853 -117.641909 71 8624ft 110kts
12-Jan-21 13:31 34.705056 -117.605955 71 8624ft 110kts
12-Jan-21 13:32 34.713833 -117.571685 69 8820ft 95kts
12-Jan-21 13:33 34.722031 -117.540114 70 9020ft 98kts
12-Jan-21 13:34 34.730279 -117.507920 70 9214ft 100kts
12-Jan-21 13:35 34.738719 -117.474786 70 9382ft 103kts
12-Jan-21 13:36 34.746164 -117.445486 70 9551ft 104kts
12-Jan-21 13:37 34.753425 -117.416888 70 9707ft 104kts
12-Jan-21 13:38 34.760629 -117.388419 70 9808ft 105kts
12-Jan-21 13:39 34.767826 -117.359330 73 9912ft 105kts
12-Jan-21 13:40 34.775851 -117.326720 73 10027ft 106kts
12-Jan-21 13:41 34.784731 -117.292469 70 10129ft 106kts
12-Jan-21 13:43 34.793513 -117.258150 71 10224ft 106kts
12-Jan-21 13:44 34.802272 -117.223558 71 10314ft 106kts
12-Jan-21 13:45 34.810968 -117.189076 71 10399ft 106kts
12-Jan-21 13:46 34.819675 -117.154478 71 10478ft 106kts
12-Jan-21 13:47 34.828402 -117.119743 71 10554ft 107kts
12-Jan-21 13:48 34.837090 -117.085120 71 10621ft 107kts
12-Jan-21 13:49 34.845962 -117.049651 71 10624ft 111kts
12-Jan-21 13:50 34.855007 -117.013381 71 10624ft 112kts
12-Jan-21 13:51 34.864105 -116.976924 71 10624ft 112kts
12-Jan-21 13:52 34.873210 -116.940426 71 10624ft 112kts
12-Jan-21 13:53 34.882374 -116.903661 72 10621ft 111kts
12-Jan-21 13:54 34.890894 -116.869327 71 10623ft 102kts
12-Jan-21 13:55 34.899120 -116.836426 71 10623ft 101kts
12-Jan-21 13:56 34.907283 -116.803618 71 10624ft 100kts
12-Jan-21 13:57 34.915364 -116.771049 71 10624ft 100kts
12-Jan-21 13:57 34.922102 -116.743852 71 10624ft 100kts
12-Jan-21 13:59 34.931487 -116.705912 71 10624ft 100kts
12-Jan-21 14:00 34.939735 -116.672519 71 10624ft 100kts
12-Jan-21 14:01 34.948056 -116.638787 71 10624ft 100kts
12-Jan-21 14:01 34.955008 -116.610568 71 10624ft 100kts
12-Jan-21 14:02 34.964051 -116.577169 61 10625ft 100kts
12-Jan-21 14:03 34.977549 -116.545925 59 10624ft 100kts
12-Jan-21 14:04 34.990796 -116.515902 59 10624ft 100kts
12-Jan-21 14:05 35.004137 -116.485813 59 10624ft 100kts
12-Jan-21 14:06 35.017841 -116.454933 59 10624ft 100kts
12-Jan-21 14:07 35.031660 -116.423783 59 10624ft 100kts
12-Jan-21 14:08 35.045708 -116.392093 59 10624ft 100kts
12-Jan-21 14:09 35.059709 -116.360489 59 10624ft 100kts
12-Jan-21 14:10 35.073794 -116.328752 60 10624ft 110kts
12-Jan-21 14:11 35.088202 -116.296046 60 10624ft 112kts
12-Jan-21 14:12 35.102895 -116.262724 60 10624ft 112kts
12-Jan-21 14:13 35.117818 -116.228883 60 10624ft 112kts
12-Jan-21 14:14 35.132703 -116.195112 60 10624ft 113kts
12-Jan-21 14:15 35.147560 -116.161378 60 10624ft 113kts
12-Jan-21 14:16 35.162482 -116.127463 60 10624ft 113kts
12-Jan-21 14:17 35.177362 -116.093610 60 10624ft 113kts
12-Jan-21 14:18 35.192193 -116.059834 60 10624ft 113kts
12-Jan-21 14:19 35.207050 -116.025965 60 10624ft 113kts
12-Jan-21 14:20 35.221891 -115.992100 60 10624ft 113kts
12-Jan-21 14:21 35.236754 -115.958149 60 10624ft 113kts
12-Jan-21 14:22 35.251561 -115.924293 60 10624ft 113kts
12-Jan-21 14:23 35.266373 -115.890391 60 10627ft 112kts
12-Jan-21 14:24 35.281148 -115.856546 60 10633ft 112kts
12-Jan-21 14:25 35.295912 -115.822684 60 10633ft 113kts
12-Jan-21 14:26 35.311364 -115.788331 50 10452ft 126kts
12-Jan-21 14:27 35.335281 -115.755151 46 10045ft 131kts
12-Jan-21 14:28 35.360040 -115.721990 46 9653ft 131kts
12-Jan-21 14:29 35.383247 -115.691068 45 9632ft 118kts
12-Jan-21 14:30 35.405177 -115.661892 45 9633ft 115kts
12-Jan-21 14:31 35.426963 -115.632827 45 9633ft 115kts
12-Jan-21 14:32 35.448590 -115.603924 45 9633ft 115kts
12-Jan-21 14:33 35.470259 -115.574930 45 9633ft 115kts
12-Jan-21 14:34 35.491919 -115.545922 45 9633ft 115kts
12-Jan-21 14:35 35.513557 -115.516923 45 9633ft 115kts
12-Jan-21 14:36 35.535453 -115.487576 46 9483ft 126kts
12-Jan-21 14:37 35.560044 -115.454413 46 9117ft 128kts
12-Jan-21 14:38 35.583839 -115.422447 46 8912ft 126kts
12-Jan-21 14:39 35.607347 -115.390855 46 8710ft 126kts
12-Jan-21 14:40 35.631043 -115.358860 46 8469ft 129kts
12-Jan-21 14:41 35.655677 -115.325433 47 8069ft 133kts
12-Jan-21 14:42 35.680662 -115.291728 47 7667ft 133kts
12-Jan-21 14:43 35.703930 -115.260387 46 7632ft 120kts
12-Jan-21 14:44 35.726277 -115.230242 46 7633ft 119kts
12-Jan-21 14:45 35.748549 -115.200133 46 7633ft 118kts
12-Jan-21 14:46 35.770756 -115.170088 46 7633ft 118kts
12-Jan-21 14:47 35.801890 -115.158523 11 7633ft 118kts
12-Jan-21 14:48 35.834247 -115.149923 11 7633ft 118kts
12-Jan-21 14:49 35.866531 -115.141337 10 7633ft 118kts
12-Jan-21 14:50 35.898771 -115.132756 10 7633ft 118kts
12-Jan-21 14:51 35.931124 -115.124139 10 7633ft 118kts
12-Jan-21 14:52 35.963429 -115.115529 10 7633ft 118kts
12-Jan-21 14:53 35.991643 -115.099754 74 7573ft 123kts
12-Jan-21 14:54 35.991887 -115.053846 90 6871ft 131kts
12-Jan-21 14:55 35.991335 -115.013011 89 6629ft 102kts
12-Jan-21 14:56 35.990662 -114.976890 89 6633ft 107kts
12-Jan-21 14:57 35.990851 -114.939581 65 6594ft 113kts
12-Jan-21 14:58 36.016122 -114.920172 26 5958ft 130kts
12-Jan-21 14:59 36.046052 -114.901928 23 5036ft 128kts
12-Jan-21 15:00 36.066407 -114.926178 290 4630ft 100kts
12-Jan-21 15:01 36.072386 -114.958451 273 4634ft 97kts
12-Jan-21 15:02 36.073416 -114.994623 270 4154ft 105kts
12-Jan-21 15:03 36.073538 -115.031352 269 3589ft 107kts
12-Jan-21 15:04 36.073588 -115.068476 269 3003ft 108kts
12-Jan-21 15:05 36.073631 -115.104605 269 2457ft 91kts
12-Jan-21 15:06 36.073550 -115.130761 273 2054ft 51kts
12-Jan-21 15:07 36.073608 -115.140639 270 2083ft 27kts
12-Jan-21 15:08 36.074736 -115.145950 289 2099ft 0kts
12-Jan-21 15:09 36.074759 -115.146024 293 2099ft 6kts
12-Jan-21 15:10 36.077743 -115.146878 328 2099ft 4kts
12-Jan-21 15:11 36.081002 -115.149748 275 2101ft 14kts
12-Jan-21 15:12 36.081259 -115.151249 334 2106ft 0kts

Navigation Log

Ident Type
Flight plan parsing failed, navigation log unavailable